sim
Sign-in with your pilot id or email,
or register
Callsign
Passwort

Schedule Details

Flight Number: DLH2193
Departure: Berlin Tegel Airport (EDDT) at 08:35
Arrival: Munich Airport (EDDM) at 09:45
Route: Lufthansa Passenger Schedule. Enter filed route here before submitting Pirep.

Weather Information
Getting current METAR information for EDDT 222120Z VRB01KT CAVOK 15/12 Q1007
Getting current METAR information for EDDM 222120Z VRB02KT CAVOK 14/14 Q1010 NOSIG

Schedule Frequency

Route Map